createdAt,value
2022-12-26T00:01:05.889Z,12.40
2022-12-26T00:03:33.011Z,13.17
2022-12-26T00:05:59.988Z,13.47
2022-12-26T00:08:26.895Z,13.63
2022-12-26T00:10:53.815Z,14.13
2022-12-26T00:13:38.717Z,13.63
2022-12-26T00:16:17.397Z,13.73
2022-12-26T00:18:45.019Z,13.97
2022-12-26T00:21:13.851Z,14.30
2022-12-26T00:23:41.343Z,15.03
2022-12-26T00:26:10.683Z,14.20
2022-12-26T00:28:38.114Z,15.30
2022-12-26T00:31:20.614Z,14.30
2022-12-26T00:33:48.786Z,14.10
2022-12-26T00:36:23.401Z,14.30
2022-12-26T00:38:51.665Z,13.47
2022-12-26T00:41:20.148Z,12.70
2022-12-26T00:43:47.767Z,13.50
2022-12-26T00:46:15.493Z,13.67
2022-12-26T00:48:42.961Z,13.37
2022-12-26T00:51:09.947Z,12.67
2022-12-26T00:53:37.449Z,13.40
2022-12-26T00:56:04.622Z,12.73
2022-12-26T00:58:31.878Z,11.80
2022-12-26T01:01:20.030Z,11.33
2022-12-26T01:03:48.599Z,13.07
2022-12-26T01:06:16.180Z,11.20
2022-12-26T01:08:43.782Z,13.27
2022-12-26T01:11:13.689Z,12.77
2022-12-26T01:13:41.064Z,11.57
2022-12-26T01:16:08.857Z,10.20
2022-12-26T01:18:36.439Z,10.70
2022-12-26T01:21:08.216Z,10.47
2022-12-26T01:23:35.441Z,9.73
2022-12-26T01:26:15.264Z,9.70
2022-12-26T01:28:43.005Z,8.90
2022-12-26T01:31:10.026Z,10.10
2022-12-26T01:33:36.982Z,9.53
2022-12-26T01:36:04.077Z,9.23
2022-12-26T01:38:30.903Z,8.77
2022-12-26T01:41:16.876Z,9.27
2022-12-26T01:44:05.912Z,9.20
2022-12-26T01:46:44.359Z,9.50
2022-12-26T01:49:37.595Z,9.10
2022-12-26T01:52:19.502Z,8.57
2022-12-26T01:54:50.837Z,8.53
2022-12-26T01:57:42.718Z,8.43
2022-12-26T02:00:11.155Z,8.73
2022-12-26T02:02:57.619Z,8.63
2022-12-26T02:05:36.424Z,9.17
2022-12-26T02:08:21.260Z,8.13
2022-12-26T02:10:58.608Z,8.80
2022-12-26T02:13:26.205Z,8.97
2022-12-26T02:15:53.344Z,8.40
2022-12-26T02:18:20.350Z,8.10
2022-12-26T02:21:31.883Z,7.67
2022-12-26T02:24:07.784Z,8.40
2022-12-26T02:27:19.134Z,7.50
2022-12-26T02:30:08.427Z,7.07
2022-12-26T02:33:21.979Z,7.10
2022-12-26T02:36:00.628Z,7.63
2022-12-26T02:38:48.402Z,7.23
2022-12-26T02:41:47.384Z,6.87
2022-12-26T02:44:46.616Z,6.83
2022-12-26T02:47:28.006Z,8.00
2022-12-26T02:50:36.707Z,7.80
2022-12-26T02:53:51.784Z,8.43
2022-12-26T02:56:53.714Z,8.47
2022-12-26T03:00:08.471Z,7.87
2022-12-26T03:03:12.798Z,9.03
2022-12-26T03:06:11.875Z,8.13
2022-12-26T03:09:05.821Z,7.93
2022-12-26T03:12:01.972Z,8.50
2022-12-26T03:14:35.862Z,8.70
2022-12-26T03:17:22.369Z,7.20
2022-12-26T03:20:04.501Z,9.23
2022-12-26T03:22:48.790Z,8.67
2022-12-26T03:26:20.480Z,8.30
2022-12-26T03:28:47.985Z,9.90
2022-12-26T03:31:16.359Z,10.07
2022-12-26T03:34:05.916Z,10.07
2022-12-26T03:37:21.190Z,9.80
2022-12-26T03:40:36.518Z,10.10
2022-12-26T03:43:39.060Z,10.67
2022-12-26T03:47:13.251Z,9.13
2022-12-26T03:50:12.287Z,9.20
2022-12-26T03:53:20.228Z,9.93
2022-12-26T03:56:50.802Z,9.90
2022-12-26T03:59:47.550Z,9.70
2022-12-26T04:02:35.514Z,10.60
2022-12-26T04:05:24.299Z,10.40
2022-12-26T04:08:18.944Z,12.60
2022-12-26T04:11:15.015Z,12.80
2022-12-26T04:14:24.851Z,10.43
2022-12-26T04:17:15.831Z,9.13
2022-12-26T04:20:03.953Z,9.07
2022-12-26T04:23:07.844Z,10.23
2022-12-26T04:26:05.668Z,10.23
2022-12-26T04:28:51.459Z,11.13
2022-12-26T04:31:52.326Z,10.50
2022-12-26T04:34:46.763Z,9.43
2022-12-26T04:37:40.262Z,11.83
2022-12-26T04:40:32.564Z,8.87
2022-12-26T04:43:47.033Z,9.50
2022-12-26T04:46:07.012Z,10.00
2022-12-26T04:49:03.896Z,9.23
2022-12-26T04:51:30.899Z,9.33
2022-12-26T04:53:57.764Z,8.60
2022-12-26T04:56:24.740Z,8.03
2022-12-26T04:58:52.222Z,8.60
2022-12-26T05:01:38.012Z,8.57
2022-12-26T05:04:24.032Z,8.87
2022-12-26T05:07:09.847Z,8.47
2022-12-26T05:09:36.879Z,8.53
2022-12-26T05:12:06.799Z,8.43
2022-12-26T05:14:36.063Z,8.30
2022-12-26T05:17:22.926Z,7.53
2022-12-26T05:20:09.204Z,6.93
2022-12-26T05:22:59.297Z,6.97
2022-12-26T05:26:10.391Z,7.57
2022-12-26T05:28:43.195Z,7.93
2022-12-26T05:31:17.408Z,8.50
2022-12-26T05:34:04.315Z,8.43
2022-12-26T05:36:56.526Z,8.93
2022-12-26T05:39:23.462Z,7.70
2022-12-26T05:41:50.780Z,8.60
2022-12-26T05:44:17.665Z,8.10
2022-12-26T05:46:44.598Z,8.00
2022-12-26T05:49:11.596Z,8.37
2022-12-26T05:51:38.877Z,8.27
2022-12-26T05:54:06.035Z,7.60
2022-12-26T05:56:32.972Z,8.27
2022-12-26T05:59:01.613Z,8.20
2022-12-26T06:01:30.511Z,8.30
2022-12-26T06:04:00.214Z,9.30
2022-12-26T06:06:28.433Z,8.17
2022-12-26T06:08:57.268Z,8.43
2022-12-26T06:11:26.672Z,8.70
2022-12-26T06:13:55.034Z,9.27
2022-12-26T06:16:22.189Z,8.93
2022-12-26T06:18:49.643Z,8.33
2022-12-26T06:21:19.618Z,8.50
2022-12-26T06:23:47.019Z,9.57
2022-12-26T06:26:14.196Z,10.07
2022-12-26T06:28:43.523Z,10.60
2022-12-26T06:31:24.854Z,11.20
2022-12-26T06:33:58.331Z,10.40
2022-12-26T06:36:27.388Z,11.53
2022-12-26T06:38:55.257Z,9.43
2022-12-26T06:41:24.690Z,10.57
2022-12-26T06:43:52.371Z,10.00
2022-12-26T06:46:22.768Z,10.90
2022-12-26T06:48:50.104Z,9.93
2022-12-26T06:51:23.903Z,8.90
2022-12-26T06:53:52.610Z,9.50
2022-12-26T06:56:26.235Z,8.93
2022-12-26T06:58:59.079Z,11.30
2022-12-26T07:01:28.342Z,11.27
2022-12-26T07:03:56.150Z,17.87
2022-12-26T07:06:28.088Z,13.97
2022-12-26T07:09:09.367Z,11.27
2022-12-26T07:11:39.449Z,10.27
2022-12-26T07:14:06.626Z,10.47
2022-12-26T07:16:39.034Z,9.57
2022-12-26T07:19:07.185Z,10.30
2022-12-26T07:21:40.483Z,10.83
2022-12-26T07:24:19.942Z,11.20
2022-12-26T07:26:48.258Z,10.63
2022-12-26T07:29:15.802Z,10.50
2022-12-26T07:31:42.846Z,9.40
2022-12-26T07:34:10.193Z,10.90
2022-12-26T07:36:37.106Z,12.07
2022-12-26T07:39:04.191Z,12.90
2022-12-26T07:41:50.026Z,10.73
2022-12-26T07:44:17.196Z,11.03
2022-12-26T07:46:45.991Z,10.97
2022-12-26T07:49:13.230Z,12.13
2022-12-26T07:51:41.305Z,10.67
2022-12-26T07:54:11.681Z,12.20
2022-12-26T07:56:39.950Z,12.00
2022-12-26T07:59:07.127Z,12.33
2022-12-26T08:01:34.146Z,12.40
2022-12-26T08:04:01.239Z,28.30
2022-12-26T08:06:28.203Z,29.90
2022-12-26T08:08:55.133Z,29.37
2022-12-26T08:11:23.946Z,17.37
2022-12-26T08:13:52.211Z,14.20
2022-12-26T08:16:20.640Z,12.60
2022-12-26T08:18:47.662Z,12.73
2022-12-26T08:21:14.660Z,13.30
2022-12-26T08:23:41.682Z,12.93
2022-12-26T08:26:12.051Z,13.33
2022-12-26T08:28:39.443Z,12.53
2022-12-26T08:31:12.787Z,14.60
2022-12-26T08:33:39.738Z,14.90
2022-12-26T08:36:10.267Z,14.77
2022-12-26T08:38:37.842Z,13.23
2022-12-26T08:41:05.354Z,16.73
2022-12-26T08:43:53.149Z,13.63
2022-12-26T08:46:21.861Z,13.50
2022-12-26T08:48:50.514Z,14.43
2022-12-26T08:51:22.798Z,13.77
2022-12-26T08:53:51.727Z,13.60
2022-12-26T08:56:24.527Z,14.10
2022-12-26T08:58:52.137Z,15.00
2022-12-26T09:01:24.378Z,16.57
2022-12-26T09:03:58.340Z,14.43
2022-12-26T09:06:25.932Z,15.83
2022-12-26T09:08:53.765Z,16.53
2022-12-26T09:11:26.821Z,15.90
2022-12-26T09:13:56.199Z,17.13
2022-12-26T09:16:32.713Z,16.80
2022-12-26T09:19:04.614Z,16.10
2022-12-26T09:21:32.451Z,16.90
2022-12-26T09:24:11.640Z,18.30
2022-12-26T09:26:38.817Z,19.90
2022-12-26T09:29:06.908Z,19.60
2022-12-26T09:31:35.683Z,18.63
2022-12-26T09:34:07.349Z,20.13
2022-12-26T09:36:40.541Z,18.87
2022-12-26T09:39:09.024Z,19.90
2022-12-26T09:42:06.688Z,18.00
2022-12-26T09:45:16.917Z,20.07
2022-12-26T09:48:04.952Z,20.20
2022-12-26T09:50:42.689Z,16.10
2022-12-26T09:53:19.848Z,15.77
2022-12-26T09:56:23.677Z,14.20
2022-12-26T09:59:07.914Z,12.33
2022-12-26T10:01:36.826Z,12.10
2022-12-26T10:04:29.673Z,13.10
2022-12-26T10:07:29.331Z,12.53
2022-12-26T10:10:11.380Z,15.30
2022-12-26T10:13:04.628Z,14.63
2022-12-26T10:15:55.242Z,15.17
2022-12-26T10:18:50.210Z,15.80
2022-12-26T10:21:40.103Z,16.03
2022-12-26T10:24:18.161Z,15.70
2022-12-26T10:26:50.112Z,16.20
2022-12-26T10:29:38.017Z,17.10
2022-12-26T10:32:36.443Z,17.03
2022-12-26T10:35:33.989Z,25.63
2022-12-26T10:38:27.899Z,27.07
2022-12-26T10:41:02.929Z,20.17
2022-12-26T10:43:34.940Z,16.53
2022-12-26T10:46:26.631Z,17.53
2022-12-26T10:48:54.395Z,17.30
2022-12-26T10:51:21.603Z,17.20
2022-12-26T10:53:52.158Z,17.70
2022-12-26T10:56:21.864Z,17.17
2022-12-26T10:59:15.236Z,18.90
2022-12-26T11:01:47.397Z,17.50
2022-12-26T11:07:17.224Z,17.50
2022-12-26T11:09:46.057Z,17.60
2022-12-26T11:12:36.979Z,18.90
2022-12-26T11:15:18.895Z,19.70
2022-12-26T11:17:50.562Z,18.90
2022-12-26T11:20:17.328Z,18.73
2022-12-26T11:22:45.671Z,18.80
2022-12-26T11:25:49.027Z,19.73
2022-12-26T11:28:35.984Z,18.23
2022-12-26T11:31:07.547Z,16.40
2022-12-26T11:33:45.138Z,17.03
2022-12-26T11:36:22.975Z,18.70
2022-12-26T11:39:00.307Z,17.07
2022-12-26T11:41:34.357Z,19.60
2022-12-26T11:44:10.527Z,17.50
2022-12-26T11:46:58.227Z,16.90
2022-12-26T11:49:33.978Z,18.77
2022-12-26T11:52:34.668Z,18.20
2022-12-26T11:55:01.821Z,18.60
2022-12-26T11:57:32.332Z,16.43
2022-12-26T12:00:24.626Z,17.57
2022-12-26T12:02:51.645Z,16.60
2022-12-26T12:05:24.208Z,17.53
2022-12-26T12:08:09.670Z,20.17
2022-12-26T12:10:54.132Z,27.10
2022-12-26T12:13:23.915Z,26.67
2022-12-26T12:16:25.194Z,24.37
2022-12-26T12:19:44.023Z,23.70
2022-12-26T12:22:31.834Z,22.40
2022-12-26T12:25:52.667Z,22.90
2022-12-26T12:28:56.284Z,23.20
2022-12-26T12:31:36.457Z,21.37
2022-12-26T12:34:41.902Z,25.77
2022-12-26T12:37:25.753Z,20.60
2022-12-26T12:40:42.104Z,18.80
2022-12-26T12:43:14.799Z,19.83
2022-12-26T12:45:56.677Z,19.60
2022-12-26T12:48:44.750Z,20.77
2022-12-26T12:51:51.532Z,20.30
2022-12-26T12:54:36.652Z,21.20
2022-12-26T12:57:43.605Z,20.57
2022-12-26T13:00:21.728Z,21.13
2022-12-26T13:03:01.733Z,20.83
2022-12-26T13:05:48.584Z,21.73
2022-12-26T13:08:24.485Z,19.27
2022-12-26T13:11:35.021Z,20.10
2022-12-26T13:14:21.190Z,20.70
2022-12-26T13:17:16.749Z,19.87
2022-12-26T13:20:06.050Z,18.73
2022-12-26T13:23:04.597Z,18.10
2022-12-26T13:25:41.736Z,20.00
2022-12-26T13:28:18.404Z,19.33
2022-12-26T13:30:45.689Z,18.23
2022-12-26T13:33:16.019Z,19.77
2022-12-26T13:36:00.216Z,20.80
2022-12-26T13:38:55.740Z,20.80
2022-12-26T13:41:43.047Z,17.87
2022-12-26T13:44:19.062Z,17.87
2022-12-26T13:46:45.831Z,18.10
2022-12-26T13:49:38.854Z,17.87
2022-12-26T13:52:11.842Z,17.80
2022-12-26T13:55:04.830Z,19.40
2022-12-26T13:57:41.880Z,20.07
2022-12-26T14:00:44.460Z,20.97
2022-12-26T14:03:46.613Z,19.90
2022-12-26T14:06:22.828Z,18.90
2022-12-26T14:09:10.801Z,20.27
2022-12-26T14:12:02.495Z,20.77
2022-12-26T14:14:57.012Z,20.47
2022-12-26T14:18:08.469Z,20.83
2022-12-26T14:21:12.177Z,20.40
2022-12-26T14:23:57.881Z,19.80
2022-12-26T14:26:33.608Z,30.60
2022-12-26T14:29:31.137Z,24.83
2022-12-26T14:32:45.822Z,28.30
2022-12-26T14:35:43.843Z,38.07
2022-12-26T14:38:32.449Z,41.10
2022-12-26T14:41:05.360Z,41.07
2022-12-26T14:43:37.869Z,40.23
2022-12-26T14:46:32.732Z,48.00
2022-12-26T14:49:17.761Z,44.93
2022-12-26T14:51:45.320Z,41.87
2022-12-26T14:54:22.338Z,40.17
2022-12-26T14:56:53.085Z,43.90
2022-12-26T14:59:32.463Z,44.30
2022-12-26T15:02:12.215Z,66.80
2022-12-26T15:05:00.333Z,47.97
2022-12-26T15:08:13.430Z,43.77
2022-12-26T15:11:25.973Z,43.53
2022-12-26T15:14:57.603Z,40.90
2022-12-26T15:18:02.328Z,41.13
2022-12-26T15:21:12.235Z,39.87
2022-12-26T15:23:56.933Z,38.83
2022-12-26T15:26:44.919Z,36.97
2022-12-26T15:29:36.555Z,39.77
2022-12-26T15:32:12.140Z,42.60
2022-12-26T15:35:36.378Z,45.03
2022-12-26T15:38:22.878Z,38.63
2022-12-26T15:41:03.031Z,39.80
2022-12-26T15:44:13.176Z,38.53
2022-12-26T15:46:51.584Z,40.00
2022-12-26T15:50:18.492Z,35.43
2022-12-26T15:53:14.821Z,37.33
2022-12-26T15:56:03.293Z,37.23
2022-12-26T15:59:09.492Z,34.93
2022-12-26T16:01:40.825Z,34.27
2022-12-26T16:04:22.637Z,34.83
2022-12-26T16:07:30.702Z,34.87
2022-12-26T16:09:58.536Z,34.50
2022-12-26T16:12:28.475Z,34.13
2022-12-26T16:15:10.575Z,34.43
2022-12-26T16:17:39.490Z,31.67
2022-12-26T16:20:51.133Z,31.67
2022-12-26T16:23:22.373Z,31.60
2022-12-26T16:25:52.876Z,31.63
2022-12-26T16:28:27.295Z,33.37
2022-12-26T16:30:56.087Z,30.80
2022-12-26T16:33:23.207Z,33.70
2022-12-26T16:35:53.882Z,32.20
2022-12-26T16:38:30.804Z,32.93
2022-12-26T16:41:00.399Z,31.73
2022-12-26T16:43:34.582Z,31.07
2022-12-26T16:46:05.357Z,30.83
2022-12-26T16:48:34.193Z,29.80
2022-12-26T16:51:08.250Z,30.50
2022-12-26T16:53:35.173Z,29.40
2022-12-26T16:56:28.977Z,31.17
2022-12-26T16:59:16.883Z,28.60
2022-12-26T17:01:58.405Z,26.90
2022-12-26T17:04:28.431Z,25.63
2022-12-26T17:07:06.440Z,23.10
2022-12-26T17:09:44.654Z,24.80
2022-12-26T17:12:30.291Z,23.27
2022-12-26T17:14:58.928Z,22.10
2022-12-26T17:17:36.053Z,23.17
2022-12-26T17:20:21.906Z,22.53
2022-12-26T17:22:54.200Z,22.20
2022-12-26T17:25:30.254Z,20.03
2022-12-26T17:28:09.740Z,21.13
2022-12-26T17:30:42.015Z,21.30
2022-12-26T17:33:25.483Z,21.73
2022-12-26T17:38:46.309Z,20.53
2022-12-26T17:41:16.639Z,21.00
2022-12-26T17:43:45.636Z,23.33
2022-12-26T17:46:15.934Z,23.10
2022-12-26T17:48:43.771Z,20.13
2022-12-26T17:51:18.677Z,23.10
2022-12-26T17:53:50.631Z,23.70
2022-12-26T17:56:24.636Z,23.80
2022-12-26T17:58:51.658Z,25.17
2022-12-26T18:01:21.277Z,25.00
2022-12-26T18:03:49.345Z,24.50
2022-12-26T18:06:17.360Z,24.07
2022-12-26T18:08:44.945Z,26.30
2022-12-26T18:11:13.909Z,26.97
2022-12-26T18:13:41.904Z,27.97
2022-12-26T18:16:16.423Z,26.63
2022-12-26T18:18:46.024Z,25.70
2022-12-26T18:21:15.599Z,25.40
2022-12-26T18:23:42.965Z,27.50
2022-12-26T18:26:23.339Z,38.33
2022-12-26T18:28:51.875Z,52.60
2022-12-26T18:31:19.139Z,26.80
2022-12-26T18:33:46.111Z,22.30
2022-12-26T18:36:15.049Z,21.07
2022-12-26T18:38:42.998Z,21.40
2022-12-26T18:41:18.629Z,22.60
2022-12-26T18:43:46.299Z,21.10
2022-12-26T18:46:25.371Z,21.60
2022-12-26T18:48:54.173Z,21.60
2022-12-26T18:51:21.671Z,22.73
2022-12-26T18:53:48.740Z,22.60
2022-12-26T18:56:19.223Z,20.67
2022-12-26T18:58:52.392Z,22.93
2022-12-26T19:01:22.829Z,21.77
2022-12-26T19:03:49.987Z,21.83
2022-12-26T19:06:23.375Z,22.30
2022-12-26T19:08:50.299Z,21.37
2022-12-26T19:11:17.582Z,19.03
2022-12-26T19:13:44.553Z,21.30
2022-12-26T19:16:11.637Z,18.10
2022-12-26T19:18:38.654Z,19.17
2022-12-26T19:21:11.652Z,19.10
2022-12-26T19:23:38.675Z,20.53
2022-12-26T19:26:15.011Z,20.17
2022-12-26T19:28:42.080Z,18.20
2022-12-26T19:31:14.327Z,25.60
2022-12-26T19:33:41.757Z,32.30
2022-12-26T19:36:10.027Z,28.87
2022-12-26T19:38:37.571Z,25.20
2022-12-26T19:41:11.180Z,21.00
2022-12-26T19:43:38.944Z,21.27
2022-12-26T19:46:11.189Z,20.30
2022-12-26T19:48:39.402Z,20.93
2022-12-26T19:51:10.315Z,25.17
2022-12-26T19:53:38.444Z,25.97
2022-12-26T19:56:24.203Z,20.53
2022-12-26T19:58:56.189Z,18.67
2022-12-26T20:01:31.362Z,16.23
2022-12-26T20:04:01.973Z,16.10
2022-12-26T20:06:31.396Z,15.60
2022-12-26T20:09:02.128Z,15.73
2022-12-26T20:11:33.731Z,15.10
2022-12-26T20:14:02.681Z,16.00
2022-12-26T20:17:03.781Z,16.87
2022-12-26T20:19:16.854Z,17.93
2022-12-26T20:21:43.699Z,15.17
2022-12-26T20:24:12.513Z,16.37
2022-12-26T20:26:40.837Z,16.37
2022-12-26T20:29:08.886Z,17.07
2022-12-26T20:31:39.109Z,16.73
2022-12-26T20:34:06.726Z,17.27
2022-12-26T20:36:36.526Z,17.17
2022-12-26T20:39:10.878Z,17.70
2022-12-26T20:41:38.244Z,18.07
2022-12-26T20:44:05.549Z,17.90
2022-12-26T20:46:34.094Z,17.33
2022-12-26T20:49:04.451Z,19.70
2022-12-26T20:51:37.267Z,19.73
2022-12-26T20:54:08.570Z,19.33
2022-12-26T20:56:37.389Z,16.90
2022-12-26T20:59:06.374Z,16.87
2022-12-26T21:01:33.805Z,19.63
2022-12-26T21:04:01.119Z,17.90
2022-12-26T21:06:36.072Z,16.50
2022-12-26T21:09:05.397Z,18.27
2022-12-26T21:11:36.362Z,16.17
2022-12-26T21:14:08.794Z,16.30
2022-12-26T21:16:43.015Z,17.07
2022-12-26T21:19:15.415Z,17.57
2022-12-26T21:21:46.033Z,17.07
2022-12-26T21:24:27.883Z,17.43
2022-12-26T21:26:56.341Z,18.67
2022-12-26T21:29:28.156Z,17.47
2022-12-26T21:31:56.039Z,17.77
2022-12-26T21:34:26.463Z,16.63
2022-12-26T21:37:13.587Z,15.90
2022-12-26T21:39:41.698Z,15.63
2022-12-26T21:42:09.454Z,16.13
2022-12-26T21:44:37.080Z,18.57
2022-12-26T21:47:05.455Z,16.47
2022-12-26T21:49:32.364Z,15.23
2022-12-26T21:51:59.314Z,15.00
2022-12-26T21:54:48.599Z,16.60
2022-12-26T21:57:16.818Z,17.40
2022-12-26T21:59:55.893Z,16.90
2022-12-26T22:02:50.631Z,17.70
2022-12-26T22:05:19.621Z,17.60
2022-12-26T22:07:47.341Z,16.27
2022-12-26T22:10:33.580Z,16.90
2022-12-26T22:13:01.390Z,16.83
2022-12-26T22:15:47.142Z,19.50
2022-12-26T22:18:14.167Z,17.63
2022-12-26T22:20:41.489Z,17.10
2022-12-26T22:23:08.431Z,20.77
2022-12-26T22:25:35.344Z,18.27
2022-12-26T22:28:02.432Z,20.80
2022-12-26T22:30:29.367Z,20.77
2022-12-26T22:32:56.377Z,21.47
2022-12-26T22:35:23.257Z,21.53
2022-12-26T22:37:50.157Z,19.57
2022-12-26T22:40:17.111Z,20.03
2022-12-26T22:42:43.980Z,19.10
2022-12-26T22:45:11.056Z,20.03
2022-12-26T22:47:37.976Z,20.53
2022-12-26T22:50:05.281Z,17.90
2022-12-26T22:52:32.236Z,17.83
2022-12-26T22:54:59.155Z,18.43
2022-12-26T22:57:26.038Z,18.60
2022-12-26T23:00:10.560Z,18.70
2022-12-26T23:02:38.178Z,21.13
2022-12-26T23:05:06.463Z,25.47
2022-12-26T23:07:33.920Z,18.80
2022-12-26T23:10:01.271Z,19.40
2022-12-26T23:12:44.032Z,18.20
2022-12-26T23:15:17.484Z,18.50
2022-12-26T23:18:20.659Z,19.03
2022-12-26T23:21:06.394Z,19.37
2022-12-26T23:23:33.730Z,18.80
2022-12-26T23:26:01.687Z,18.63
2022-12-26T23:28:47.692Z,17.07
2022-12-26T23:31:15.182Z,18.40
2022-12-26T23:33:42.167Z,17.77
2022-12-26T23:36:09.284Z,19.27
2022-12-26T23:38:36.351Z,18.70
2022-12-26T23:41:03.315Z,18.77
2022-12-26T23:43:33.349Z,17.53
2022-12-26T23:46:00.749Z,18.07
2022-12-26T23:48:27.884Z,19.17
2022-12-26T23:51:06.978Z,20.33
2022-12-26T23:53:34.550Z,18.90
2022-12-26T23:56:01.445Z,20.63
2022-12-26T23:58:28.552Z,20.50
